Weather reports worldwide

Advertisment
La Hoya, Spain (8205): temperature & dewpoint: 08.12.2018 00:00:00 - 14.12.2018 00:00:00 (CET)La Hoya, Spain (8205): wind speed & gusts: 08.12.2018 00:00:00 - 14.12.2018 00:00:00 (CET)La Hoya, Spain (8205): wind direction: 08.12.2018 00:00:00 - 14.12.2018 00:00:00 (CET)La Hoya, Spain (8205): visibility: 08.12.2018 00:00:00 - 14.12.2018 00:00:00 (CET)La Hoya, Spain (8205): precipitation: 08.12.2018 00:00:00 - 14.12.2018 00:00:00 (CET)
Date & Time tt [°C] td [°C] ff [km/h] ff [kn] fx [km/h] fx [kn] dd vv [km] rr [mm]
14.12.2018 00:00:00 -3,8 -3,9 - - - - - 0,2 0,0
13.12.2018 23:00:00 -3,7 -3,9 - - - - - 0,1 0,0
13.12.2018 22:00:00 -3,7 -3,9 - - - - - 0,1 0,0
13.12.2018 21:00:00 -3,7 -3,9 - - - - - 0,1 0,0
13.12.2018 20:00:00 -3,7 -3,9 - - - - - 0,1 0,0
13.12.2018 19:00:00 -3,7 -3,9 - - - - - 0,1 -
13.12.2018 18:00:00 -3,9 -4,2 - - - - - 0,2 0,0
13.12.2018 17:00:00 -3,5 -3,6 28 15 59 32 W 0,2 0,0
13.12.2018 16:00:00 -3,2 -3,3 26 14 59 32 W 0,1 0,0
13.12.2018 15:00:00 -3,3 -3,6 26 14 53 29 W 0,1 0,0
13.12.2018 14:00:00 -3,1 -3,3 28 15 68 37 WNW 0,9 0,0
13.12.2018 13:00:00 -3,3 -3,6 26 14 50 27 W 0,9 -
13.12.2018 12:00:00 -3,2 -3,3 25 13 49 26 W 0,2 0,0
13.12.2018 11:00:00 -3,4 -3,6 21 12 61 33 W 0,1 0,0
13.12.2018 10:00:00 -3,2 -3,3 23 12 - - W 0,2 0,0
13.12.2018 09:00:00 -3,1 -3,0 - - - - - 0,3 0,0
13.12.2018 08:00:00 -2,4 - - - - - - 1,4 0,0
13.12.2018 07:00:00 -0,4 -0,5 - - - - - 0,3 -
13.12.2018 06:00:00 2,7 2,5 65 35 105 57 SW 1,1 6,4
13.12.2018 05:00:00 3,2 2,9 59 32 102 55 SW 2,3 1,6
13.12.2018 04:00:00 3,9 2,9 59 32 96 52 SW 4,2 0,2
13.12.2018 03:00:00 2,3 1,5 51 28 93 50 SW 10 0,2
13.12.2018 02:00:00 2,4 1,7 58 32 85 46 SW 2,3 0,6
13.12.2018 01:00:00 2,5 0,6 58 31 83 45 SW 6 -
13.12.2018 00:00:00 2,2 1,3 61 33 85 46 SW 20 0,2
12.12.2018 23:00:00 1,4 0,6 55 30 83 45 SW 2,3 0,0
12.12.2018 22:00:00 3,2 -1,4 46 25 - - WSW 20 0,0
12.12.2018 21:00:00 3,7 -9,0 - - - - - 20 0,0
12.12.2018 20:00:00 0,0 -2,0 - - - - - 20 0,0
12.12.2018 19:00:00 1,2 -2,7 - - - - - 3,5 -
12.12.2018 18:00:00 3,2 -22,7 - - - - - 20 0,0
12.12.2018 17:00:00 6,3 -28,3 - - - - - 20 0,0
12.12.2018 16:00:00 5,3 -6,7 - - - - - 20 0,0
12.12.2018 15:00:00 7,2 -3,6 - - - - - 20 0,0
12.12.2018 14:00:00 - - - - - - - - -
12.12.2018 13:00:00 - - - - - - - - -
12.12.2018 12:00:00 8,5 -8,2 20 11 32 17 WSW 20 0,0
12.12.2018 11:00:00 7,6 -9,0 23 12 34 18 SW 20 0,0
12.12.2018 10:00:00 5,5 -8,2 23 13 36 19 SW 20 0,0
12.12.2018 09:00:00 3,9 -6,4 17 9 25 14 WSW 20 0,0
12.12.2018 08:00:00 2,6 -3,9 14 8 21 12 WSW 20 0,0
12.12.2018 07:00:00 2,7 -3,3 16 8 20 11 WSW 20 -
12.12.2018 06:00:00 1,5 -3,9 13 7 18 10 SW 20 0,0
12.12.2018 05:00:00 3,4 -3,3 16 9 19 10 SSW 20 0,0
12.12.2018 04:00:00 2,4 -4,2 16 9 19 10 SSW 20 0,0
12.12.2018 03:00:00 2,9 -4,5 12 7 18 10 SSW 20 0,0
12.12.2018 02:00:00 2,2 -3,6 13 7 16 9 SW 20 0,0
12.12.2018 01:00:00 3,0 -3,6 11 6 21 12 SSW 20 -
12.12.2018 00:00:00 4,5 -3,6 14 8 20 11 SSE 20 0,0
11.12.2018 23:00:00 2,8 -3,3 13 7 18 10 SSW 20 0,0
11.12.2018 22:00:00 4,2 -3,0 9 5 16 9 SSE 20 0,0
11.12.2018 21:00:00 3,0 -4,2 11 6 18 10 SW 20 0,0
11.12.2018 20:00:00 4,5 -2,5 11 6 15 8 SW 20 0,0
11.12.2018 19:00:00 4,0 -5,1 10 5 16 8 SW 20 -
11.12.2018 18:00:00 5,1 -3,0 9 5 16 8 SSW 20 0,0
11.12.2018 17:00:00 6,5 -3,6 13 7 18 10 W 20 0,0
11.12.2018 16:00:00 7,4 -2,5 7 4 21 12 WSW 20 0,0
11.12.2018 15:00:00 8,1 -3,6 14 8 23 13 WSW 20 0,0
11.12.2018 14:00:00 8,7 -3,0 15 8 24 13 WSW 20 0,0
11.12.2018 13:00:00 9,4 -2,0 9 5 21 11 W 20 -
11.12.2018 12:00:00 8,7 -3,3 12 6 19 11 SW 20 0,0
11.12.2018 11:00:00 8,5 -4,8 12 6 18 10 SW 20 0,0
11.12.2018 10:00:00 6,0 -3,6 14 8 18 10 SSW 20 0,0
11.12.2018 09:00:00 4,9 -3,3 17 9 19 10 SSW 20 0,0
11.12.2018 08:00:00 5,1 -4,2 16 8 18 10 SSW 20 0,0
11.12.2018 07:00:00 4,1 -3,6 16 8 19 10 SSW 20 -
11.12.2018 06:00:00 4,3 -3,9 13 7 19 10 SSW 20 0,0
11.12.2018 05:00:00 4,3 -4,5 12 6 15 8 SSW 20 0,0
11.12.2018 04:00:00 4,9 -5,1 13 7 16 9 SSW 20 0,0
11.12.2018 03:00:00 5,1 -3,9 10 5 14 7 SSW 20 0,0
11.12.2018 02:00:00 4,9 -3,6 11 6 19 10 SSW 20 0,0
11.12.2018 01:00:00 7,1 -4,5 15 8 20 11 SSW 20 -
11.12.2018 00:00:00 6,3 -5,7 16 9 18 10 SSW 20 0,0
10.12.2018 23:00:00 4,8 -4,5 13 7 16 8 SSW 20 0,0
10.12.2018 22:00:00 4,5 -4,2 12 6 16 8 S 20 0,0
10.12.2018 21:00:00 4,9 -3,0 12 6 15 8 SSW 20 0,0
10.12.2018 20:00:00 4,9 -2,5 10 5 13 7 S 20 0,0
10.12.2018 19:00:00 5,1 -2,5 10 5 11 6 S 20 -
10.12.2018 18:00:00 5,6 -2,7 8 4 11 6 S 20 0,0
10.12.2018 17:00:00 7,6 -3,6 7 4 9 5 S 20 0,0
10.12.2018 16:00:00 11,3 -4,8 3 2 8 4 E 20 0,0
10.12.2018 15:00:00 11,1 -7,1 6 3 12 6 E 20 0,0
10.12.2018 14:00:00 12,5 -6,0 5 3 11 6 ENE 20 0,0
10.12.2018 13:00:00 12,8 -7,8 4 2 9 5 N 20 -
10.12.2018 12:00:00 11,8 -5,4 5 3 10 5 W 20 0,0
10.12.2018 11:00:00 10,2 -3,6 7 4 12 7 SSW 20 0,0
10.12.2018 10:00:00 5,9 -9,0 10 5 13 7 SSW 20 0,0
10.12.2018 09:00:00 4,8 -4,8 10 5 14 7 SSW 20 0,0
10.12.2018 08:00:00 5,2 -3,3 10 6 14 8 SSW 20 0,0
10.12.2018 07:00:00 4,5 -5,7 9 5 13 7 SSW 20 -
10.12.2018 06:00:00 4,5 -11,7 10 5 14 8 SSW 20 0,0
10.12.2018 05:00:00 5,1 -7,5 10 6 14 8 SSW 20 0,0
10.12.2018 04:00:00 5,2 -7,5 11 6 14 8 SSW 20 0,0
10.12.2018 03:00:00 4,0 -9,4 9 5 11 6 SSW 20 0,0
10.12.2018 02:00:00 4,9 -6,7 8 4 10 5 S 20 0,0
10.12.2018 01:00:00 5,1 -5,4 6 3 9 5 SSE 20 -
10.12.2018 00:00:00 5,8 -5,4 6 4 11 6 SSE 20 0,0
09.12.2018 23:00:00 6,6 -9,4 9 5 14 8 E 20 0,0
09.12.2018 22:00:00 6,3 -7,1 7 4 10 6 ESE 20 0,0
09.12.2018 21:00:00 6,4 -2,2 5 3 14 7 E 20 0,0
09.12.2018 20:00:00 7,1 -2,0 5 3 14 8 E 20 0,0
09.12.2018 19:00:00 7,1 -0,3 3 2 10 5 SE 20 -
09.12.2018 18:00:00 6,5 -0,5 2 1 10 5 SW 20 0,0
09.12.2018 17:00:00 9,5 0,4 4 2 18 10 W 20 0,0
09.12.2018 16:00:00 11,4 1,9 8 4 17 9 N 20 0,0
09.12.2018 15:00:00 12,1 1,9 5 3 17 9 N 20 0,0
09.12.2018 14:00:00 11,8 1,9 8 4 21 12 N 20 0,0
09.12.2018 13:00:00 11,4 0,9 9 5 19 10 NNW 20 -
09.12.2018 12:00:00 10,9 0,2 9 5 16 9 NNW 20 0,0
09.12.2018 11:00:00 10,7 0,2 6 3 21 11 W 20 0,0
09.12.2018 10:00:00 8,0 1,1 5 3 15 8 W 20 0,0
09.12.2018 09:00:00 6,2 0,0 7 4 18 10 W 20 0,0
09.12.2018 08:00:00 6,4 -0,5 11 6 16 9 SW 20 0,0
09.12.2018 07:00:00 6,7 -1,2 6 4 13 7 SW 20 -
09.12.2018 06:00:00 5,0 -0,7 10 6 14 7 SW 20 0,0
09.12.2018 05:00:00 5,8 -0,5 11 6 22 12 WSW 20 0,0
09.12.2018 04:00:00 6,8 0,0 13 7 22 12 SW 20 0,0
09.12.2018 03:00:00 7,6 0,4 10 5 21 11 W 20 0,0
09.12.2018 02:00:00 5,3 1,7 11 6 15 8 SW 20 0,0
09.12.2018 01:00:00 5,5 1,1 9 5 12 6 SW 20 -
09.12.2018 00:00:00 5,1 0,0 7 4 11 6 S 20 0,0
08.12.2018 23:00:00 4,7 0,0 8 4 13 7 S 20 0,0
08.12.2018 22:00:00 5,3 1,3 5 3 10 5 S 20 0,0
08.12.2018 21:00:00 6,2 0,9 4 2 9 5 WSW 20 0,0
08.12.2018 20:00:00 5,3 0,2 3 2 11 6 SW 20 0,0
08.12.2018 19:00:00 7,4 -0,7 4 2 10 5 WSW 20 -
08.12.2018 18:00:00 7,6 -1,2 4 2 20 11 E 20 0,0
08.12.2018 17:00:00 9,8 -2,7 6 3 19 10 E 20 0,0
08.12.2018 16:00:00 10,5 -1,4 9 5 19 10 NE 20 0,0
08.12.2018 15:00:00 11,2 -5,1 9 5 28 15 ENE 20 0,0
08.12.2018 14:00:00 11,3 -5,7 11 6 23 12 NE 20 0,0
08.12.2018 13:00:00 9,8 -6,4 7 4 15 8 N 20 -
08.12.2018 12:00:00 9,3 -7,1 11 6 21 11 N 20 0,0
08.12.2018 11:00:00 7,9 -10,8 12 7 21 12 W 20 0,0
08.12.2018 10:00:00 5,7 -2,7 15 8 20 11 WSW 20 0,0
08.12.2018 09:00:00 4,4 -2,5 13 7 22 12 SW 20 0,0
08.12.2018 08:00:00 4,8 -18,8 9 5 27 15 WNW 20 0,0
08.12.2018 07:00:00 5,1 -32,6 12 6 34 18 WNW 20 -
08.12.2018 06:00:00 5,2 -30,2 16 9 34 18 WSW 20 0,0
08.12.2018 05:00:00 6,0 -26,6 14 8 42 23 W 20 0,0
08.12.2018 04:00:00 5,7 -25,2 15 8 33 18 WSW 20 0,0
08.12.2018 03:00:00 6,3 -22,7 16 9 37 20 W 20 0,0
08.12.2018 02:00:00 6,0 -21,6 15 8 41 22 WSW 20 0,0
08.12.2018 01:00:00 6,7 -22,7 17 9 46 25 WSW 20 -
08.12.2018 00:00:00 6,1 -18,8 18 10 36 20 W 20 0,0

tt = temperature
td = dewpoint
ff = wind speed
fx = gusts
dd = wind direction
vv = visibility
rr = precipitation

Next stations